Terminal Aerodrome Forecast
Issued by NWS

Home | Current Version | Previous Version | Text Only | Print | Product List | Glossary On
Versions: 1 2 3 4 5 6 7 8 9 10 11 12 13 14 15 16
000
FTPQ31 PGUM 231700 CCA
TAFPQ
TAF COR
PKWA 231731Z 2318/2418 09011KT P6SM VCSH SCT016 SCT040 BKN120
      TEMPO 2318/2321 05012G20KT 4SM SHRA SCT014 BKN025
     FM232100 11011KT 6SM -RA VCTS SCT014CB BKN040 OVC100
      TEMPO 2321/2401 07012G20KT 2SM +SHRA BKN012 OVC020
     FM240200 13009KT P6SM VCSH SCT016 BKN060 OVC120=

USA.gov is the U.S. government's official web portal to all federal, state and local government web resources and services.